Time;durP1;ratioP1;P1;durP2;ratioP2;P2;SDS_P1;SDS_P2;PMS_P1;PMS_P2;Temp;Humidity;BMP_temperature;BMP_pressure;BME280_temperature;BME280_humidity;BME280_pressure;Samples;Min_cycle;Max_cycle;Signal;HPM_P1;HPM_P2
2022/11/22 00:02:20;;;;;;;4.03;1.70;;;9.20;99.90;;;;;;6120352;23;20495;-86
2022/11/22 00:05:27;;;;;;;4.03;1.70;;;9.10;99.90;;;;;;6112076;23;20444;-89
2022/11/22 00:08:09;;;;;;;4.63;2.00;;;9.10;99.90;;;;;;6091862;23;20763;-88
2022/11/22 00:10:39;;;;;;;4.40;1.43;;;9.00;99.90;;;;;;6095959;23;20412;-89
2022/11/22 00:13:18;;;;;;;2.50;1.17;;;8.90;99.90;;;;;;6095874;23;21186;-88
2022/11/22 00:16:11;;;;;;;2.97;1.70;;;8.90;99.90;;;;;;6097167;23;20447;-86
2022/11/22 00:19:01;;;;;;;6.60;2.83;;;8.90;99.90;;;;;;6096529;23;20408;-85
2022/11/22 00:21:36;;;;;;;2.23;2.00;;;8.80;99.90;;;;;;6103606;23;20424;-85
2022/11/22 00:24:40;;;;;;;3.87;1.60;;;8.80;99.90;;;;;;6105518;23;20554;-88
2022/11/22 00:27:19;;;;;;;4.20;1.80;;;9.20;99.90;;;;;;6101649;23;20408;-88
2022/11/22 00:30:05;;;;;;;3.00;1.30;;;9.40;99.90;;;;;;6126281;23;20483;-88
2022/11/22 00:32:39;;;;;;;7.27;2.00;;;9.40;99.90;;;;;;6102610;23;20730;-85
2022/11/22 00:35:16;;;;;;;2.90;2.10;;;9.20;99.90;;;;;;6103864;23;20435;-87
2022/11/22 00:37:54;;;;;;;4.37;1.97;;;9.10;99.90;;;;;;6100572;23;20416;-85
2022/11/22 00:40:53;;;;;;;2.40;1.43;;;9.00;99.90;;;;;;6102099;23;21033;-87
2022/11/22 00:43:33;;;;;;;4.70;1.87;;;9.00;99.90;;;;;;6098540;23;20448;-86
2022/11/22 00:46:26;;;;;;;2.03;1.70;;;9.10;99.90;;;;;;6104878;23;20400;-89
2022/11/22 00:49:06;;;;;;;4.27;1.80;;;9.00;99.90;;;;;;6116559;23;20478;-87
2022/11/22 00:52:06;;;;;;;6.33;2.07;;;9.20;99.90;;;;;;6141242;23;20396;-90
2022/11/22 00:55:02;;;;;;;3.00;1.70;;;9.20;99.90;;;;;;6110379;23;20444;-86
2022/11/22 00:57:31;;;;;;;3.13;1.40;;;9.30;99.90;;;;;;6073038;23;20427;-86
2022/11/22 01:00:12;;;;;;;2.00;1.27;;;9.30;99.90;;;;;;6094103;23;20424;-87
2022/11/22 01:02:47;;;;;;;2.97;2.07;;;9.40;99.90;;;;;;6114324;23;20499;-86
2022/11/22 01:05:30;;;;;;;6.60;2.10;;;9.30;99.90;;;;;;6132863;23;20940;-84
2022/11/22 01:08:00;;;;;;;2.73;2.40;;;9.30;99.90;;;;;;6097422;23;20467;-85
2022/11/22 01:10:48;;;;;;;3.50;1.90;;;9.20;99.90;;;;;;6121588;23;20483;-86
2022/11/22 01:13:42;;;;;;;2.17;1.53;;;9.20;99.90;;;;;;6121817;23;20431;-86
2022/11/22 01:16:28;;;;;;;5.07;2.20;;;9.10;99.90;;;;;;6155250;23;20462;-86
2022/11/22 01:19:04;;;;;;;3.00;1.70;;;9.00;99.90;;;;;;6127134;23;20423;-86
2022/11/22 01:21:52;;;;;;;3.40;2.17;;;8.80;99.90;;;;;;6150826;23;20449;-87
2022/11/22 01:24:40;;;;;;;3.97;2.40;;;9.00;99.90;;;;;;6125758;23;21380;-85
2022/11/22 01:27:40;;;;;;;3.53;1.47;;;8.80;99.90;;;;;;6134204;23;20473;-87
2022/11/22 01:30:08;;;;;;;3.03;2.60;;;9.10;99.90;;;;;;6124292;23;20415;-86
2022/11/22 01:32:37;;;;;;;5.27;2.10;;;9.30;99.90;;;;;;6125546;23;21010;-85
2022/11/22 01:35:21;;;;;;;3.23;1.73;;;9.20;99.90;;;;;;6125107;23;20469;-86
2022/11/22 01:40:23;;;;;;;1.50;1.40;;;8.80;99.90;;;;;;6147478;23;20435;-85
2022/11/22 01:43:16;;;;;;;3.50;1.60;;;9.00;99.90;;;;;;6118336;23;20506;-85
2022/11/22 01:46:33;;;;;;;2.80;1.50;;;9.00;99.90;;;;;;6126025;23;20510;-86
2022/11/22 01:49:43;;;;;;;4.37;2.13;;;9.00;99.90;;;;;;6123779;23;20454;-88
2022/11/22 01:52:38;;;;;;;2.73;1.70;;;8.90;99.90;;;;;;6124570;23;20494;-87
2022/11/22 01:55:19;;;;;;;2.00;1.50;;;8.80;99.90;;;;;;6148696;23;20431;-86
2022/11/22 01:58:08;;;;;;;4.67;1.70;;;9.00;99.90;;;;;;6124295;23;20461;-89
2022/11/22 02:01:11;;;;;;;6.27;1.90;;;9.00;99.90;;;;;;6128444;23;20442;-87
2022/11/22 02:07:08;;;;;;;2.80;1.50;;;9.00;99.90;;;;;;6097370;23;20602;-86
2022/11/22 02:09:57;;;;;;;3.17;1.73;;;9.00;99.90;;;;;;6089529;23;20440;-87
2022/11/22 02:12:47;;;;;;;5.33;1.60;;;8.90;99.90;;;;;;6044024;23;20405;-87
2022/11/22 02:15:27;;;;;;;;;;;;;;;;;;;;;
2022/11/22 02:18:05;;;;;;;2.53;1.63;;;8.80;99.90;;;;;;6090463;23;20417;-86
2022/11/22 02:20:46;;;;;;;4.30;2.50;;;8.80;99.90;;;;;;6089948;23;20492;-86
2022/11/22 02:24:15;;;;;;;3.80;1.70;;;8.70;99.90;;;;;;6068300;23;20508;-88
2022/11/22 02:27:00;;;;;;;1.90;1.43;;;8.80;99.90;;;;;;6030300;23;20447;-86
2022/11/22 02:29:34;;;;;;;1.97;1.67;;;8.90;99.90;;;;;;6087504;23;20497;-87
2022/11/22 02:32:07;;;;;;;2.03;1.57;;;9.00;99.90;;;;;;6087723;23;20479;-88
2022/11/22 02:35:22;;;;;;;4.43;2.20;;;9.00;99.90;;;;;;6099714;23;20436;-88
2022/11/22 02:38:03;;;;;;;4.80;2.00;;;9.00;99.90;;;;;;6065523;23;20440;-87
2022/11/22 02:40:55;;;;;;;4.17;1.37;;;9.00;99.90;;;;;;6066411;23;20417;-86
2022/11/22 02:43:43;;;;;;;3.93;1.70;;;9.00;99.90;;;;;;6086937;23;20455;-87
2022/11/22 02:46:22;;;;;;;1.87;1.77;;;8.80;99.90;;;;;;6064506;23;20409;-84
2022/11/22 02:48:53;;;;;;;1.60;1.30;;;8.70;99.90;;;;;;6065780;23;20421;-85
2022/11/22 02:51:44;;;;;;;;;;;;;;;;;;;;;
2022/11/22 02:54:21;;;;;;;1.67;1.17;;;8.90;99.90;;;;;;6090173;23;20444;-83
2022/11/22 02:56:48;;;;;;;1.83;1.37;;;8.90;99.90;;;;;;6063244;23;20420;-85
2022/11/22 02:59:24;;;;;;;2.20;0.90;;;8.70;99.90;;;;;;6104520;23;20419;-87
2022/11/22 03:02:00;;;;;;;2.30;0.90;;;8.80;99.90;;;;;;6086559;23;20397;-87
2022/11/22 03:04:38;;;;;;;3.37;1.03;;;8.70;99.90;;;;;;6120641;23;20432;-86
2022/11/22 03:07:18;;;;;;;4.67;1.03;;;8.60;99.90;;;;;;6138331;23;20499;-87
2022/11/22 03:09:56;;;;;;;4.23;1.60;;;8.70;99.90;;;;;;6134926;23;20467;-87
2022/11/22 03:12:36;;;;;;;2.13;1.30;;;8.80;99.90;;;;;;6157140;23;20423;-87
2022/11/22 03:15:17;;;;;;;2.23;1.20;;;8.60;99.90;;;;;;6135051;23;20468;-87
2022/11/22 03:18:26;;;;;;;3.87;1.40;;;8.70;99.90;;;;;;6122519;23;20411;-87
2022/11/22 03:21:07;;;;;;;1.93;1.40;;;9.00;99.90;;;;;;6119046;23;20407;-85
2022/11/22 03:23:48;;;;;;;3.90;1.60;;;9.10;99.90;;;;;;6095108;23;20439;-86
2022/11/22 03:26:18;;;;;;;4.70;1.50;;;8.90;99.90;;;;;;6069207;23;20475;-87
2022/11/22 03:28:47;;;;;;;3.67;1.30;;;9.00;99.90;;;;;;6133283;23;20420;-86
2022/11/22 03:31:22;;;;;;;4.07;1.10;;;9.00;99.90;;;;;;6098041;23;20524;-86
2022/11/22 03:33:57;;;;;;;3.40;1.20;;;8.90;99.90;;;;;;6120215;23;20416;-83
2022/11/22 03:36:44;;;;;;;2.63;1.27;;;8.80;99.90;;;;;;6119062;23;20744;-87
2022/11/22 03:39:14;;;;;;;3.60;1.63;;;8.80;99.90;;;;;;6093946;23;20416;-85
2022/11/22 03:42:06;;;;;;;4.17;1.57;;;8.80;99.90;;;;;;6097026;23;20420;-86
2022/11/22 03:44:53;;;;;;;2.23;1.33;;;8.80;99.90;;;;;;6105973;23;20436;-88
2022/11/22 03:47:44;;;;;;;2.07;1.20;;;8.80;99.90;;;;;;6120657;23;20420;-85
2022/11/22 03:50:24;;;;;;;3.90;1.60;;;8.80;99.90;;;;;;6121720;23;20431;-86
2022/11/22 03:53:00;;;;;;;6.30;2.00;;;8.80;99.90;;;;;;6121004;23;20408;-86
2022/11/22 03:55:36;;;;;;;1.23;1.00;;;8.80;99.90;;;;;;6120831;23;20502;-86
2022/11/22 03:58:11;;;;;;;4.40;1.70;;;8.80;99.90;;;;;;6096944;23;20490;-86
2022/11/22 04:01:04;;;;;;;4.90;1.30;;;8.80;99.90;;;;;;6096578;23;20412;-87
2022/11/22 04:40:17;;;;;;;3.73;1.73;;;8.70;99.90;;;;;;5994001;23;20412;-85
2022/11/22 04:59:12;;;;;;;;;;;;;;;;;;;;;
2022/11/22 05:28:05;;;;;;;;;;;;;;;;;;;;;
2022/11/22 05:36:00;;;;;;;;;;;;;;;;;;;;;
2022/11/22 06:11:12;;;;;;;9.63;2.30;;;8.50;99.90;;;;;;6156322;23;20560;-86
2022/11/22 06:47:59;;;;;;;;;;;;;;;;;;;;;
2022/11/22 07:22:08;;;;;;;4.30;1.93;;;8.40;99.90;;;;;;6334988;22;20440;-87
2022/11/22 07:29:46;;;;;;;;;;;;;;;;;;;;;
2022/11/22 08:13:37;;;;;;;;;;;;;;;;;;;;;
2022/11/22 10:48:22;;;;;;;;;;;;;;;;;;;;;
2022/11/22 10:51:59;;;;;;;1.87;0.80;;;10.40;94.30;;;;;;6016399;23;20456;-86
2022/11/22 11:19:06;;;;;;;1.23;0.60;;;10.80;93.00;;;;;;6188841;23;20480;-85
2022/11/22 13:11:47;;;;;;;3.30;1.00;;;10.50;95.70;;;;;;6028286;23;20375;-85
2022/11/22 13:22:16;;;;;;;;;;;;;;;;;;;;;
2022/11/22 13:33:31;;;;;;;1.80;1.00;;;11.00;95.70;;;;;;5925783;24;20406;-85
2022/11/22 15:17:36;;;;;;;0.80;0.70;;;10.90;96.90;;;;;;6204486;23;20366;-84
2022/11/22 16:33:35;;;;;;;0.77;0.77;;;10.50;99.00;;;;;;6189165;23;20401;-84
2022/11/22 16:51:05;;;;;;;0.73;0.57;;;10.60;99.10;;;;;;6200256;23;20402;-83
2022/11/22 17:04:01;;;;;;;0.70;0.70;;;10.60;99.20;;;;;;6130309;23;20399;-83
2022/11/22 17:10:10;;;;;;;0.93;0.60;;;10.60;99.30;;;;;;6013677;23;20407;-83
2022/11/22 17:13:17;;;;;;;;;;;;;;;;;;;;;
2022/11/22 17:16:20;;;;;;;0.80;0.80;;;10.50;99.70;;;;;;5917091;24;20435;-86
2022/11/22 17:23:04;;;;;;;1.00;0.90;;;10.60;99.90;;;;;;5955104;23;20746;-84
2022/11/22 17:28:35;;;;;;;1.03;0.70;;;10.60;99.90;;;;;;6187486;23;20422;-84
2022/11/22 17:31:15;;;;;;;1.57;0.70;;;10.50;99.90;;;;;;6152319;23;20781;-84
2022/11/22 17:42:30;;;;;;;0.97;0.80;;;10.60;99.90;;;;;;6159506;23;20473;-82
2022/11/22 18:25:24;;;;;;;0.97;0.97;;;10.50;99.90;;;;;;5915773;24;20550;-85
2022/11/22 18:28:47;;;;;;;1.10;0.77;;;10.50;99.90;;;;;;6007604;23;20893;-85
2022/11/22 20:29:55;;;;;;;2.33;1.10;;;10.90;99.90;;;;;;5945697;24;20406;-85
2022/11/22 22:42:24;;;;;;;4.03;1.30;;;10.60;99.90;;;;;;6182311;23;20449;-83
